Kezdőlap
METAR-TAF:

METAR-TAF

Repülőterek :

Isztambul Atatürk, Törökország

Atatürk nemzetközi repülőtér

földrajzi szélesség: 40-58N, földrajzi hosszúság: 028-49E, magasság: 48 m

Jelenlegi meteorológiai megfigyelések

A jelentés 41 perccel ezelõtt készült, 00:20 UTC
Észak-északnyugati szél 6 kt
Hőmérséklet 13°C
Páratartalom 77%
Légköri nyomás 1015 hPa
Látótávolság 10 km, vagy több
felhőtlen 1500 m magasságban, és nincs gomolyfelhõ

METAR: LTBA 240020Z 34006KT CAVOK 13/09 Q1015 NOSIG RMK RWY17L 34005KT RWY05 32006KT RWY23 34006KT

Idő: 04:01 (01:01 UTC)

Előrejelzés

A jelentés 2 órával és 21 perccel ezelõtt készült, 22:40 UTC
Az előrejelzés 24-én 00 óra UTC és 25-én 06 óra UTC között érvényes
Különbözõ irányokból fújó szél 2 kt
Látótávolság 10 km, vagy több
felhőtlen 1500 m magasságban, és nincs gomolyfelhõ

TAF: LTBA 232240Z 2400/2506 VRB02KT CAVOK

Meteorológiai megfigyelések és előrejelzések több, mint 4000 repülőtéren (METAR és TAF jelentéseket).

A térképen piros és sárga pontok jelzik az elérhető meteorológiai állomásokat.

Mozgassa az egeret a pont fölött, hogy megjelenjen az állomás neve.

Azután kattintson az időjárási megfigyelések és előrejelzések megtekintéséhez.

A térkép megváltoztatása: kattintson a fekete keresztel jelölt zöld gombra ráközelítéshez, a vonallal jelölt zöld gombra távolításhoz, vagy a zöld nyilakra a szomszédos térképek eléréséhez.


METAR-TAF: